首页
METAR-TAF:

METAR-TAF

机场 :

薩萊諾, 意大利

纬度: 40-37N, 经度: 014-55E, 海拔: 40米

当前天气观测

该预报发布于1小时和22分钟前的14:50 UTC
风速5节,风向东北
温度 18°C
湿度 83%
气压 1004 hPa
能见度10公里或以上
散云层高于3500英尺
多云层高于6000英尺

METAR: LIRI 051450Z 05005KT 9999 SCT035 BKN060 18/15 Q1004

时间: 18:12 (16:12 UTC)


TAF: 丢失

超过4000个机场的气象观测和天气预报(METAR&TAF报告)。

可查询的气象台以黄色和红色小点在地图上表示。

将鼠标移到小点上方,可查看气象台名称。

然后点击查看天气观测和预报。

如需切换地图:点击带黑十字的绿色按钮放大地图;点击带横线的绿色按钮缩小地图;或者点击绿色箭头查看邻近地区的地图。


METAR-TAF: